Time;durP1;ratioP1;P1;durP2;ratioP2;P2;SDS_P1;SDS_P2;PMS_P1;PMS_P2;Temp;Humidity;BMP_temperature;BMP_pressure;BME280_temperature;BME280_humidity;BME280_pressure;Samples;Min_cycle;Max_cycle;Signal;HPM_P1;HPM_P2
2022/01/26 00:07:53;;;;;;;27.80;19.33;;;;;;;;;;4990342;28;20240;-35
2022/01/26 00:10:20;;;;;;;26.95;19.52;;;;;;;;;;4988122;28;20252;-37
2022/01/26 00:12:47;;;;;;;31.23;21.35;;;;;;;;;;4990933;28;20802;-37
2022/01/26 00:15:14;;;;;;;29.63;21.40;;;;;;;;;;4989292;28;21828;-36
2022/01/26 00:17:41;;;;;;;26.38;19.70;;;;;;;;;;4989378;28;20236;-37
2022/01/26 00:20:19;;;;;;;30.98;22.17;;;;;;;;;;4989739;28;21001;-37
2022/01/26 00:25:34;;;;;;;29.05;21.17;;;;;;;;;;4990777;28;20236;-35
2022/01/26 00:38:39;;;;;;;32.78;23.10;;;;;;;;;;4985816;28;20236;-37
2022/01/26 00:41:08;;;;;;;34.08;23.98;;;;;;;;;;4989430;28;20283;-34
2022/01/26 00:43:36;;;;;;;32.60;22.58;;;;;;;;;;4984649;28;21014;-36
2022/01/26 00:46:05;;;;;;;34.03;24.08;;;;;;;;;;4994801;28;20235;-38
2022/01/26 00:48:33;;;;;;;30.92;22.13;;;;;;;;;;4989973;28;21231;-36
2022/01/26 00:51:03;;;;;;;37.67;25.27;;;;;;;;;;4988887;28;20435;-37
2022/01/26 00:53:34;;;;;;;34.53;24.20;;;;;;;;;;4992445;28;20236;-37
2022/01/26 00:56:01;;;;;;;43.40;25.85;;;;;;;;;;4993405;28;20422;-36
2022/01/26 00:58:28;;;;;;;50.97;26.87;;;;;;;;;;5001386;28;20450;-35
2022/01/26 01:00:58;;;;;;;39.28;24.88;;;;;;;;;;5013215;28;20238;-36
2022/01/26 01:03:25;;;;;;;43.55;26.05;;;;;;;;;;5004861;28;20236;-36
2022/01/26 01:06:03;;;;;;;44.50;24.20;;;;;;;;;;4996780;28;20256;-36
2022/01/26 01:08:30;;;;;;;40.03;24.00;;;;;;;;;;4990702;28;20343;-36
2022/01/26 01:10:57;;;;;;;36.20;23.30;;;;;;;;;;4991317;28;20228;-36
2022/01/26 01:13:32;;;;;;;48.03;24.60;;;;;;;;;;4990748;28;20236;-34
2022/01/26 01:15:59;;;;;;;37.33;24.70;;;;;;;;;;5000276;28;20238;-35
2022/01/26 01:18:51;;;;;;;35.95;24.85;;;;;;;;;;4996679;28;20603;-36
2022/01/26 01:29:15;;;;;;;41.08;26.38;;;;;;;;;;4992738;28;20510;-34
2022/01/26 01:31:46;;;;;;;41.38;27.00;;;;;;;;;;5005366;28;20298;-35
2022/01/26 01:34:13;;;;;;;45.28;28.10;;;;;;;;;;5011950;28;20694;-36
2022/01/26 01:36:42;;;;;;;44.05;27.92;;;;;;;;;;4986643;28;20233;-36
2022/01/26 01:39:09;;;;;;;43.70;27.10;;;;;;;;;;4973163;28;20244;-35
2022/01/26 01:41:36;;;;;;;44.00;28.30;;;;;;;;;;4972344;28;20236;-35
2022/01/26 01:44:04;;;;;;;43.15;27.33;;;;;;;;;;4972902;28;20236;-35
2022/01/26 01:46:31;;;;;;;40.17;26.77;;;;;;;;;;4992143;28;20997;-35
2022/01/26 01:48:58;;;;;;;40.70;26.83;;;;;;;;;;4991866;28;20255;-37
2022/01/26 01:51:31;;;;;;;40.70;26.45;;;;;;;;;;4992443;28;20228;-36
2022/01/26 01:53:58;;;;;;;38.80;25.45;;;;;;;;;;4976961;28;20236;-36
2022/01/26 01:56:25;;;;;;;41.85;25.52;;;;;;;;;;4972832;28;20231;-36
2022/01/26 01:58:53;;;;;;;39.38;24.95;;;;;;;;;;4990358;28;20827;-35
2022/01/26 02:01:20;;;;;;;40.28;26.60;;;;;;;;;;4991781;28;20235;-35
2022/01/26 02:03:47;;;;;;;38.47;25.02;;;;;;;;;;4992074;28;20235;-36
2022/01/26 02:06:14;;;;;;;41.55;26.83;;;;;;;;;;4992122;28;20232;-35
2022/01/26 02:08:41;;;;;;;36.47;24.63;;;;;;;;;;4987323;28;20243;-36
2022/01/26 02:11:10;;;;;;;36.58;24.55;;;;;;;;;;4972480;28;20220;-36
2022/01/26 02:19:36;;;;;;;37.00;24.00;;;;;;;;;;4994208;28;20315;-34
2022/01/26 03:00:46;;;;;;;35.75;23.67;;;;;;;;;;4995487;28;20235;-35
2022/01/26 03:03:27;;;;;;;38.47;25.30;;;;;;;;;;4996278;28;20318;-35
2022/01/26 03:06:00;;;;;;;35.55;24.17;;;;;;;;;;4975474;28;20227;-35
2022/01/26 03:08:41;;;;;;;38.17;24.35;;;;;;;;;;4974655;28;20241;-35
2022/01/26 03:11:11;;;;;;;36.40;24.27;;;;;;;;;;4975035;28;20279;-36
2022/01/26 03:13:44;;;;;;;35.25;23.88;;;;;;;;;;4975466;28;20232;-36
2022/01/26 03:16:18;;;;;;;38.00;24.92;;;;;;;;;;5000231;28;20224;-35
2022/01/26 03:29:59;;;;;;;34.67;22.40;;;;;;;;;;4994664;28;20228;-36
2022/01/26 03:35:26;;;;;;;34.10;22.55;;;;;;;;;;4974132;28;20235;-36
2022/01/26 03:37:55;;;;;;;31.35;20.70;;;;;;;;;;4988080;28;20230;-36
2022/01/26 03:40:31;;;;;;;32.33;21.67;;;;;;;;;;4994256;28;20239;-36
2022/01/26 03:42:58;;;;;;;31.27;20.35;;;;;;;;;;4994107;28;20224;-36
2022/01/26 03:45:25;;;;;;;28.40;19.45;;;;;;;;;;4997322;28;20240;-36
2022/01/26 03:47:53;;;;;;;27.67;18.58;;;;;;;;;;5006278;28;20247;-35
2022/01/26 03:50:20;;;;;;;27.42;17.58;;;;;;;;;;4994168;28;20224;-36
2022/01/26 03:52:47;;;;;;;26.40;17.85;;;;;;;;;;4993513;28;20240;-36
2022/01/26 03:55:14;;;;;;;27.80;17.92;;;;;;;;;;4993946;28;20232;-35
2022/01/26 03:57:41;;;;;;;25.17;16.75;;;;;;;;;;4993872;28;20298;-35
2022/01/26 04:00:08;;;;;;;24.27;17.25;;;;;;;;;;4993031;28;20232;-36
2022/01/26 04:02:35;;;;;;;24.67;16.50;;;;;;;;;;5013442;28;20227;-34
2022/01/26 04:05:06;;;;;;;21.83;15.88;;;;;;;;;;4995304;28;20323;-36
2022/01/26 04:07:33;;;;;;;22.13;15.90;;;;;;;;;;4993613;28;20430;-36
2022/01/26 04:10:18;;;;;;;24.30;15.02;;;;;;;;;;4993065;28;20236;-37
2022/01/26 04:12:45;;;;;;;22.35;15.20;;;;;;;;;;4993435;28;20258;-36
2022/01/26 04:15:24;;;;;;;22.30;15.35;;;;;;;;;;4994934;28;20243;-36
2022/01/26 04:17:51;;;;;;;22.90;16.02;;;;;;;;;;5013232;28;20690;-35
2022/01/26 04:20:19;;;;;;;21.52;14.45;;;;;;;;;;5011148;28;20232;-37
2022/01/26 04:22:55;;;;;;;18.50;13.25;;;;;;;;;;4993562;28;20968;-36
2022/01/26 04:25:25;;;;;;;20.13;14.52;;;;;;;;;;4993099;28;20231;-36
2022/01/26 04:27:55;;;;;;;19.80;13.75;;;;;;;;;;4993600;28;20721;-35
2022/01/26 04:30:22;;;;;;;18.85;13.07;;;;;;;;;;4995912;28;20271;-36
2022/01/26 04:32:49;;;;;;;18.83;13.15;;;;;;;;;;4998529;28;20625;-36
2022/01/26 04:35:16;;;;;;;19.60;13.48;;;;;;;;;;4993492;28;20337;-37
2022/01/26 04:40:36;;;;;;;16.92;12.13;;;;;;;;;;4993598;28;20234;-36
2022/01/26 04:43:04;;;;;;;18.77;12.60;;;;;;;;;;4992544;28;20713;-35
2022/01/26 04:45:31;;;;;;;17.52;12.60;;;;;;;;;;4997077;28;20235;-35
2022/01/26 04:47:58;;;;;;;16.80;12.07;;;;;;;;;;5012216;28;20254;-36
2022/01/26 04:50:25;;;;;;;17.40;11.70;;;;;;;;;;5012495;28;20228;-35
2022/01/26 04:52:52;;;;;;;19.35;11.27;;;;;;;;;;5012647;28;20232;-36
2022/01/26 04:55:19;;;;;;;17.98;11.75;;;;;;;;;;4993217;28;20240;-35
2022/01/26 04:57:46;;;;;;;16.23;11.70;;;;;;;;;;4993187;28;20695;-36
2022/01/26 05:00:15;;;;;;;16.15;11.93;;;;;;;;;;4994377;28;20691;-36
2022/01/26 05:02:42;;;;;;;14.70;10.98;;;;;;;;;;5012513;28;20318;-35
2022/01/26 05:05:10;;;;;;;16.60;11.73;;;;;;;;;;4986665;28;20241;-36
2022/01/26 05:07:37;;;;;;;14.85;10.65;;;;;;;;;;4973332;28;20231;-35
2022/01/26 05:10:04;;;;;;;16.55;11.27;;;;;;;;;;4973234;28;20323;-37
2022/01/26 05:12:32;;;;;;;13.80;10.10;;;;;;;;;;4973426;28;20232;-37
2022/01/26 05:14:59;;;;;;;16.65;10.75;;;;;;;;;;4989254;28;20290;-36
2022/01/26 05:17:26;;;;;;;15.90;10.90;;;;;;;;;;4991569;28;20250;-35
2022/01/26 05:19:57;;;;;;;16.17;10.95;;;;;;;;;;4992911;28;20832;-36
2022/01/26 05:22:24;;;;;;;15.20;10.48;;;;;;;;;;4992814;28;20698;-36
2022/01/26 05:24:52;;;;;;;13.95;10.05;;;;;;;;;;4992878;28;20707;-36
2022/01/26 05:27:19;;;;;;;16.75;11.02;;;;;;;;;;4992101;28;20228;-37
2022/01/26 05:29:46;;;;;;;15.38;10.30;;;;;;;;;;4992181;28;20243;-35
2022/01/26 05:32:13;;;;;;;15.55;10.73;;;;;;;;;;4992255;28;20227;-36
2022/01/26 05:34:40;;;;;;;16.38;11.13;;;;;;;;;;4992732;28;20287;-35
2022/01/26 05:37:07;;;;;;;16.73;10.52;;;;;;;;;;4991932;28;20220;-36
2022/01/26 05:39:37;;;;;;;13.70;10.15;;;;;;;;;;4972249;28;20228;-36
2022/01/26 05:42:05;;;;;;;15.60;10.32;;;;;;;;;;4973168;28;21020;-36
2022/01/26 05:44:32;;;;;;;13.80;10.13;;;;;;;;;;4972776;28;20573;-36
2022/01/26 05:46:59;;;;;;;14.80;9.80;;;;;;;;;;5003549;28;20223;-35
2022/01/26 05:49:26;;;;;;;14.65;10.70;;;;;;;;;;4998107;28;20275;-35
2022/01/26 05:51:53;;;;;;;12.70;9.25;;;;;;;;;;4992124;28;20232;-35
2022/01/26 05:54:20;;;;;;;13.85;10.23;;;;;;;;;;4992221;28;20243;-35
2022/01/26 05:56:47;;;;;;;14.88;10.45;;;;;;;;;;4992262;28;20695;-35
2022/01/26 05:59:15;;;;;;;17.13;11.40;;;;;;;;;;4991566;28;20212;-36
2022/01/26 06:01:42;;;;;;;17.45;11.07;;;;;;;;;;4992260;28;20725;-36
2022/01/26 06:04:09;;;;;;;14.18;10.35;;;;;;;;;;4991715;28;20235;-35
2022/01/26 06:06:36;;;;;;;16.13;10.77;;;;;;;;;;4992242;28;20234;-35
2022/01/26 06:09:08;;;;;;;15.70;11.30;;;;;;;;;;4991998;28;20613;-34
2022/01/26 06:11:35;;;;;;;14.73;10.93;;;;;;;;;;4991589;28;20234;-35
2022/01/26 06:14:02;;;;;;;15.13;11.07;;;;;;;;;;4992040;28;20232;-35
2022/01/26 06:16:29;;;;;;;15.10;10.90;;;;;;;;;;5003537;28;20228;-36
2022/01/26 06:18:56;;;;;;;16.65;11.25;;;;;;;;;;5005578;28;20236;-34
2022/01/26 06:21:23;;;;;;;16.25;11.57;;;;;;;;;;4991284;28;20228;-34
2022/01/26 06:23:50;;;;;;;16.38;11.98;;;;;;;;;;4992021;28;20228;-34
2022/01/26 06:26:17;;;;;;;16.83;11.50;;;;;;;;;;4991890;28;20220;-35
2022/01/26 06:28:44;;;;;;;14.85;11.40;;;;;;;;;;4993749;28;20241;-36
2022/01/26 06:31:14;;;;;;;15.25;11.48;;;;;;;;;;5004429;28;20233;-34
2022/01/26 06:33:41;;;;;;;14.98;11.50;;;;;;;;;;5001483;28;20236;-35
2022/01/26 06:36:08;;;;;;;17.20;12.40;;;;;;;;;;4995217;28;20359;-36
2022/01/26 06:38:35;;;;;;;16.65;12.48;;;;;;;;;;4994692;28;20236;-34
2022/01/26 06:41:02;;;;;;;16.80;12.55;;;;;;;;;;4995054;28;20239;-34
2022/01/26 06:43:31;;;;;;;18.63;12.65;;;;;;;;;;4994615;28;20364;-35
2022/01/26 06:46:05;;;;;;;17.92;12.88;;;;;;;;;;5002695;28;20231;-35
2022/01/26 06:48:59;;;;;;;17.40;12.75;;;;;;;;;;5014489;28;20243;-35
2022/01/26 06:51:26;;;;;;;17.83;12.82;;;;;;;;;;5013307;28;20258;-34
2022/01/26 06:53:53;;;;;;;16.88;13.27;;;;;;;;;;5014193;28;20698;-34
2022/01/26 06:56:20;;;;;;;20.33;14.45;;;;;;;;;;4995714;28;20236;-35
2022/01/26 06:58:47;;;;;;;19.20;13.90;;;;;;;;;;4994772;28;20228;-34
2022/01/26 07:01:15;;;;;;;19.85;14.25;;;;;;;;;;5004103;28;20232;-35
2022/01/26 07:03:42;;;;;;;20.42;14.13;;;;;;;;;;5011517;28;20275;-34
2022/01/26 07:06:10;;;;;;;20.90;14.32;;;;;;;;;;4993915;28;21079;-34
2022/01/26 07:08:36;;;;;;;21.02;15.38;;;;;;;;;;4994679;28;20240;-34
2022/01/26 07:11:03;;;;;;;21.23;15.57;;;;;;;;;;4994687;28;20694;-35
2022/01/26 07:13:30;;;;;;;19.55;15.20;;;;;;;;;;4994652;28;21052;-35
2022/01/26 07:21:29;;;;;;;22.55;16.45;;;;;;;;;;4994612;28;20691;-36
2022/01/26 07:23:56;;;;;;;22.73;16.98;;;;;;;;;;4994690;28;21165;-34
2022/01/26 07:26:27;;;;;;;20.33;15.73;;;;;;;;;;4994213;28;20236;-34
2022/01/26 07:28:54;;;;;;;22.48;16.50;;;;;;;;;;4993500;28;20968;-34
2022/01/26 07:31:22;;;;;;;23.50;17.55;;;;;;;;;;5004827;28;20238;-35
2022/01/26 07:33:54;;;;;;;23.45;17.10;;;;;;;;;;5014354;28;20975;-35
2022/01/26 07:36:21;;;;;;;23.88;17.95;;;;;;;;;;5013917;28;20230;-36
2022/01/26 07:38:50;;;;;;;24.85;18.63;;;;;;;;;;5006859;28;20232;-37
2022/01/26 07:41:17;;;;;;;28.35;20.08;;;;;;;;;;4993568;28;20691;-35
2022/01/26 07:43:44;;;;;;;26.65;19.65;;;;;;;;;;4993790;28;20258;-35
2022/01/26 07:46:11;;;;;;;28.90;20.88;;;;;;;;;;5003264;28;20318;-37
2022/01/26 07:48:38;;;;;;;28.65;20.75;;;;;;;;;;5013446;28;20239;-35
2022/01/26 07:51:05;;;;;;;30.20;21.80;;;;;;;;;;4993336;28;20237;-34
2022/01/26 07:53:33;;;;;;;29.90;22.02;;;;;;;;;;4992208;28;20290;-35
2022/01/26 07:56:00;;;;;;;33.58;23.63;;;;;;;;;;5003569;28;20303;-34
2022/01/26 07:58:27;;;;;;;34.35;23.25;;;;;;;;;;5002741;28;20223;-35
2022/01/26 08:00:54;;;;;;;33.08;23.63;;;;;;;;;;4998826;28;20238;-37
2022/01/26 08:03:21;;;;;;;30.67;23.08;;;;;;;;;;5003257;28;20253;-35
2022/01/26 08:05:48;;;;;;;33.65;23.25;;;;;;;;;;5001271;28;20236;-35
2022/01/26 08:08:15;;;;;;;31.90;24.17;;;;;;;;;;5001945;28;20322;-36
2022/01/26 08:10:44;;;;;;;33.55;22.65;;;;;;;;;;5001844;28;20269;-35
2022/01/26 08:13:11;;;;;;;34.05;24.75;;;;;;;;;;5001154;28;20246;-35
2022/01/26 08:15:37;;;;;;;33.40;24.92;;;;;;;;;;4999150;28;20228;-35
2022/01/26 08:18:06;;;;;;;33.75;24.48;;;;;;;;;;5003972;28;20236;-35
2022/01/26 08:20:40;;;;;;;37.90;25.48;;;;;;;;;;4999203;28;20236;-35
2022/01/26 08:23:07;;;;;;;33.92;23.27;;;;;;;;;;5000672;28;20287;-36
2022/01/26 08:25:34;;;;;;;34.88;25.20;;;;;;;;;;5001019;28;20271;-35
2022/01/26 08:28:10;;;;;;;30.15;23.38;;;;;;;;;;5001100;28;20242;-36
2022/01/26 08:30:38;;;;;;;38.80;25.02;;;;;;;;;;5003692;28;20985;-35
2022/01/26 08:33:05;;;;;;;35.65;24.15;;;;;;;;;;5000360;28;20239;-37
2022/01/26 08:35:32;;;;;;;31.85;23.33;;;;;;;;;;5000339;28;20614;-35
2022/01/26 08:37:59;;;;;;;39.40;24.45;;;;;;;;;;5000453;28;20283;-35
2022/01/26 08:40:26;;;;;;;36.30;23.40;;;;;;;;;;5000580;28;20228;-36
2022/01/26 08:42:53;;;;;;;42.20;25.10;;;;;;;;;;4998240;28;20781;-38
2022/01/26 08:45:21;;;;;;;36.00;24.10;;;;;;;;;;5002549;28;20331;-36
2022/01/26 08:47:49;;;;;;;34.13;24.00;;;;;;;;;;5001456;28;20618;-34
2022/01/26 08:50:17;;;;;;;32.00;22.98;;;;;;;;;;4992838;28;20240;-35
2022/01/26 08:52:44;;;;;;;33.30;22.75;;;;;;;;;;4998701;28;20236;-36
2022/01/26 08:55:11;;;;;;;31.30;23.60;;;;;;;;;;5012337;28;20230;-35
2022/01/26 08:57:38;;;;;;;34.67;24.40;;;;;;;;;;5013145;28;20234;-37
2022/01/26 09:00:05;;;;;;;38.05;25.75;;;;;;;;;;5006768;28;20778;-37
2022/01/26 09:02:33;;;;;;;33.03;23.85;;;;;;;;;;5013290;28;20227;-36
2022/01/26 09:05:01;;;;;;;32.67;22.85;;;;;;;;;;5013063;28;20389;-36
2022/01/26 09:07:28;;;;;;;33.63;24.55;;;;;;;;;;5001510;28;20400;-36
2022/01/26 09:09:59;;;;;;;45.97;25.35;;;;;;;;;;4993610;28;20722;-38
2022/01/26 09:12:26;;;;;;;48.33;25.92;;;;;;;;;;4992206;28;20446;-35
2022/01/26 09:14:53;;;;;;;43.17;24.38;;;;;;;;;;4995127;28;20249;-36
2022/01/26 09:17:20;;;;;;;40.17;25.90;;;;;;;;;;4993197;28;20691;-35
2022/01/26 09:19:49;;;;;;;40.92;28.13;;;;;;;;;;4991663;28;20420;-36
2022/01/26 09:22:16;;;;;;;41.80;26.15;;;;;;;;;;4993752;28;20243;-34
2022/01/26 09:24:43;;;;;;;41.30;27.67;;;;;;;;;;4992918;28;20233;-34
2022/01/26 09:27:12;;;;;;;40.78;26.20;;;;;;;;;;5003877;28;20241;-33
2022/01/26 09:29:39;;;;;;;37.08;25.17;;;;;;;;;;4998841;28;20308;-33
2022/01/26 09:32:07;;;;;;;38.80;26.10;;;;;;;;;;5008762;28;20235;-34
2022/01/26 09:34:37;;;;;;;41.60;27.15;;;;;;;;;;5012187;28;20224;-34
2022/01/26 09:37:04;;;;;;;39.75;24.77;;;;;;;;;;5011880;28;20231;-33
2022/01/26 09:39:31;;;;;;;36.58;25.58;;;;;;;;;;4996477;28;20239;-34
2022/01/26 09:41:58;;;;;;;42.03;26.80;;;;;;;;;;4991435;28;20428;-32
2022/01/26 09:44:25;;;;;;;35.55;25.38;;;;;;;;;;4987072;28;20428;-33
2022/01/26 09:46:52;;;;;;;38.88;24.88;;;;;;;;;;4974063;28;20269;-32
2022/01/26 09:49:20;;;;;;;38.50;24.83;;;;;;;;;;4972519;28;20245;-43
2022/01/26 09:51:49;;;;;;;32.97;23.75;;;;;;;;;;4985339;28;20634;-44
2022/01/26 09:54:17;;;;;;;39.08;23.98;;;;;;;;;;4992290;28;20224;-44
2022/01/26 09:56:44;;;;;;;38.92;24.58;;;;;;;;;;4992014;28;20231;-43
2022/01/26 09:59:11;;;;;;;36.28;24.17;;;;;;;;;;4992095;28;20224;-32
2022/01/26 10:01:38;;;;;;;33.80;24.70;;;;;;;;;;4996826;28;20435;-33
2022/01/26 10:04:05;;;;;;;33.67;24.33;;;;;;;;;;4995043;28;20451;-36
2022/01/26 10:06:39;;;;;;;39.38;24.65;;;;;;;;;;4990099;28;20239;-31
2022/01/26 10:09:55;;;;;;;37.80;24.42;;;;;;;;;;4990233;28;20232;-34
2022/01/26 10:17:30;;;;;;;37.95;23.60;;;;;;;;;;4993589;28;20234;-31
2022/01/26 10:19:57;;;;;;;38.78;26.02;;;;;;;;;;4994049;28;20251;-33
2022/01/26 10:22:24;;;;;;;41.40;27.63;;;;;;;;;;4992404;28;20442;-31
2022/01/26 10:24:51;;;;;;;42.37;27.30;;;;;;;;;;4990303;28;21048;-30
2022/01/26 10:27:18;;;;;;;36.38;25.52;;;;;;;;;;4991566;28;20227;-34
2022/01/26 10:29:45;;;;;;;37.80;25.15;;;;;;;;;;4991600;28;20239;-31
2022/01/26 10:32:12;;;;;;;39.53;24.38;;;;;;;;;;5009247;28;20235;-36
2022/01/26 10:34:39;;;;;;;36.67;24.02;;;;;;;;;;5006626;28;20724;-29
2022/01/26 10:37:06;;;;;;;36.70;22.58;;;;;;;;;;4991713;28;20224;-32
2022/01/26 10:39:37;;;;;;;33.97;23.33;;;;;;;;;;4991479;28;20231;-32
2022/01/26 10:42:06;;;;;;;34.30;23.13;;;;;;;;;;4991660;28;20262;-30
2022/01/26 10:44:37;;;;;;;38.70;23.35;;;;;;;;;;4991961;28;20224;-31
2022/01/26 10:47:05;;;;;;;34.20;22.00;;;;;;;;;;4991155;28;20291;-29
2022/01/26 10:49:54;;;;;;;31.00;22.30;;;;;;;;;;4991705;28;20596;-30
2022/01/26 10:52:24;;;;;;;32.03;22.42;;;;;;;;;;4991478;28;20232;-30
2022/01/26 10:54:51;;;;;;;29.63;21.10;;;;;;;;;;4991749;28;20228;-31
2022/01/26 10:57:18;;;;;;;26.63;19.80;;;;;;;;;;4985444;28;20241;-30
2022/01/26 10:59:45;;;;;;;29.85;20.92;;;;;;;;;;4989279;28;20271;-31
2022/01/26 11:02:12;;;;;;;31.77;21.73;;;;;;;;;;5007773;28;20236;-33
2022/01/26 11:04:39;;;;;;;29.20;21.25;;;;;;;;;;4996249;28;20232;-31
2022/01/26 11:07:07;;;;;;;30.55;21.23;;;;;;;;;;4990853;28;20235;-31
2022/01/26 11:09:34;;;;;;;29.40;20.83;;;;;;;;;;4990146;28;20240;-29
2022/01/26 11:12:01;;;;;;;30.48;20.70;;;;;;;;;;4991306;28;20236;-30
2022/01/26 11:14:28;;;;;;;29.63;20.25;;;;;;;;;;4991870;28;20311;-31
2022/01/26 11:16:56;;;;;;;27.38;19.85;;;;;;;;;;5008768;28;20231;-30
2022/01/26 11:19:23;;;;;;;25.58;18.23;;;;;;;;;;4998004;28;20232;-30
2022/01/26 11:21:50;;;;;;;26.60;19.67;;;;;;;;;;4995924;28;20240;-30
2022/01/26 11:24:38;;;;;;;28.63;20.35;;;;;;;;;;4975290;28;20236;-30
2022/01/26 11:27:05;;;;;;;25.85;18.95;;;;;;;;;;4987751;28;20243;-29
2022/01/26 11:29:34;;;;;;;30.77;19.15;;;;;;;;;;4993618;28;20240;-31
2022/01/26 11:32:01;;;;;;;25.52;18.13;;;;;;;;;;4999456;28;21058;-30
2022/01/26 11:34:28;;;;;;;25.98;18.40;;;;;;;;;;4995658;28;20230;-31
2022/01/26 11:36:55;;;;;;;26.58;17.48;;;;;;;;;;4996043;28;20238;-33
2022/01/26 11:42:29;;;;;;;24.42;18.17;;;;;;;;;;4998564;28;21118;-33
2022/01/26 11:45:07;;;;;;;28.33;18.63;;;;;;;;;;4994636;28;20247;-29
2022/01/26 11:47:34;;;;;;;26.88;17.45;;;;;;;;;;4991662;28;20243;-31
2022/01/26 11:50:01;;;;;;;28.08;20.75;;;;;;;;;;4992085;28;20887;-30
2022/01/26 11:52:29;;;;;;;33.35;22.58;;;;;;;;;;4992858;28;20270;-33
2022/01/26 11:54:59;;;;;;;35.65;21.75;;;;;;;;;;4993446;28;20232;-31
2022/01/26 11:57:26;;;;;;;29.55;20.65;;;;;;;;;;4994068;28;20236;-31
2022/01/26 11:59:53;;;;;;;29.65;19.67;;;;;;;;;;4993523;28;20234;-28
2022/01/26 12:02:53;;;;;;;30.73;19.55;;;;;;;;;;5009845;28;20293;-29
2022/01/26 12:05:12;;;;;;;31.30;20.23;;;;;;;;;;4992636;28;20427;-30
2022/01/26 12:07:39;;;;;;;31.38;18.70;;;;;;;;;;4994010;28;20784;-31
2022/01/26 12:10:06;;;;;;;29.25;16.98;;;;;;;;;;4994051;28;20247;-30
2022/01/26 12:12:35;;;;;;;27.30;18.33;;;;;;;;;;4993743;28;20232;-30
2022/01/26 12:15:03;;;;;;;27.55;17.65;;;;;;;;;;4993230;28;20690;-27
2022/01/26 12:17:34;;;;;;;26.08;16.30;;;;;;;;;;4974074;28;20803;-32
2022/01/26 12:32:00;;;;;;;30.20;17.08;;;;;;;;;;4986685;28;20239;-28
2022/01/26 12:36:59;;;;;;;20.05;13.02;;;;;;;;;;5000421;28;20228;-29
2022/01/26 12:42:12;;;;;;;24.15;13.68;;;;;;;;;;4993363;28;20714;-29
2022/01/26 12:44:39;;;;;;;19.63;13.30;;;;;;;;;;4992841;28;20629;-30
2022/01/26 12:47:06;;;;;;;22.67;14.10;;;;;;;;;;5000992;28;20231;-33
2022/01/26 12:49:33;;;;;;;21.35;13.38;;;;;;;;;;4992727;28;20224;-29
2022/01/26 12:52:00;;;;;;;23.08;13.40;;;;;;;;;;4993067;28;20258;-32
2022/01/26 12:54:27;;;;;;;21.52;13.05;;;;;;;;;;4993315;28;20228;-30
2022/01/26 12:56:54;;;;;;;25.75;13.27;;;;;;;;;;4993098;28;20228;-34
2022/01/26 12:59:21;;;;;;;19.55;13.30;;;;;;;;;;4992314;28;20238;-30
2022/01/26 13:01:48;;;;;;;21.08;12.65;;;;;;;;;;5007054;28;20233;-32
2022/01/26 13:04:16;;;;;;;19.60;12.65;;;;;;;;;;5012555;28;20231;-30
2022/01/26 13:06:43;;;;;;;19.88;12.25;;;;;;;;;;4994626;28;20224;-29
2022/01/26 13:09:10;;;;;;;19.80;12.27;;;;;;;;;;4991618;28;20729;-30
2022/01/26 13:11:37;;;;;;;18.25;12.50;;;;;;;;;;4993012;28;20244;-31
2022/01/26 13:14:11;;;;;;;15.60;11.25;;;;;;;;;;4993092;28;20242;-29
2022/01/26 13:16:40;;;;;;;19.33;12.15;;;;;;;;;;5005378;28;20225;-32
2022/01/26 13:19:17;;;;;;;15.57;11.07;;;;;;;;;;5011675;28;20322;-31
2022/01/26 13:22:11;;;;;;;17.30;11.50;;;;;;;;;;4973276;28;20232;-30
2022/01/26 13:24:48;;;;;;;17.70;10.93;;;;;;;;;;4988885;28;20258;-31
2022/01/26 13:27:27;;;;;;;15.60;10.55;;;;;;;;;;4992042;28;20244;-32
2022/01/26 13:30:37;;;;;;;18.08;11.90;;;;;;;;;;4992709;28;20234;-30
2022/01/26 13:35:44;;;;;;;17.88;11.60;;;;;;;;;;4992279;28;20236;-31
2022/01/26 13:38:31;;;;;;;19.77;12.50;;;;;;;;;;4986308;28;20212;-30
2022/01/26 13:41:07;;;;;;;19.30;12.20;;;;;;;;;;4993128;28;20238;-34
2022/01/26 13:49:17;;;;;;;18.70;12.20;;;;;;;;;;4991768;28;20246;-33
2022/01/26 13:59:25;;;;;;;25.23;13.13;;;;;;;;;;4992151;28;20232;-31
2022/01/26 14:01:52;;;;;;;22.20;12.82;;;;;;;;;;4990581;28;20461;-31
2022/01/26 14:04:19;;;;;;;23.27;12.15;;;;;;;;;;4991475;28;20296;-30
2022/01/26 14:06:46;;;;;;;28.23;13.48;;;;;;;;;;4984786;28;20432;-35
2022/01/26 14:09:13;;;;;;;29.25;12.40;;;;;;;;;;4986717;28;20234;-35
2022/01/26 14:11:40;;;;;;;28.52;13.45;;;;;;;;;;4988121;28;20228;-31
2022/01/26 14:14:09;;;;;;;29.55;13.20;;;;;;;;;;4987618;28;20232;-33
2022/01/26 14:16:40;;;;;;;25.60;12.48;;;;;;;;;;4996673;28;20232;-33
2022/01/26 14:26:47;;;;;;;22.50;11.82;;;;;;;;;;4987330;28;20239;-36
2022/01/26 14:29:30;;;;;;;19.50;11.70;;;;;;;;;;4987878;28;20234;-36
2022/01/26 14:32:27;;;;;;;20.60;12.57;;;;;;;;;;4989462;28;20251;-32
2022/01/26 14:40:47;;;;;;;21.63;13.60;;;;;;;;;;4988294;28;20446;-33
2022/01/26 14:51:51;;;;;;;18.88;11.80;;;;;;;;;;4991267;28;20250;-33
2022/01/26 14:54:26;;;;;;;21.83;12.45;;;;;;;;;;4988730;28;20435;-38
2022/01/26 15:20:06;;;;;;;19.42;11.68;;;;;;;;;;4986586;28;20232;-36
2022/01/26 15:29:59;;;;;;;20.75;12.57;;;;;;;;;;4989335;28;20717;-32
2022/01/26 15:44:02;;;;;;;20.15;11.30;;;;;;;;;;4988865;28;20237;-34
2022/01/26 15:52:13;;;;;;;16.70;10.32;;;;;;;;;;4985574;28;20240;-37
2022/01/26 16:04:22;;;;;;;34.90;18.88;;;;;;;;;;4988514;28;20235;-33
2022/01/26 16:05:58;;;;;;;32.63;16.45;;;;;;;;;;4992629;28;20289;-32
2022/01/26 16:17:18;;;;;;;22.90;12.32;;;;;;;;;;4992307;28;20722;-33
2022/01/26 16:44:24;;;;;;;18.58;10.55;;;;;;;;;;4992957;28;20238;-30
2022/01/26 17:27:19;;;;;;;18.35;11.00;;;;;;;;;;4998915;28;20967;-33
2022/01/26 17:55:15;;;;;;;25.00;13.88;;;;;;;;;;4992126;28;20238;-38
2022/01/26 18:15:46;;;;;;;25.88;14.90;;;;;;;;;;5011667;28;20693;-32
2022/01/26 18:50:42;;;;;;;37.78;17.55;;;;;;;;;;4994420;28;20725;-33
2022/01/26 18:53:09;;;;;;;39.80;16.40;;;;;;;;;;4994684;28;20331;-32
2022/01/26 18:55:36;;;;;;;29.50;16.75;;;;;;;;;;4994573;28;20252;-35
2022/01/26 18:58:03;;;;;;;33.65;16.60;;;;;;;;;;4989360;28;20318;-36
2022/01/26 19:00:30;;;;;;;32.67;17.17;;;;;;;;;;4993245;28;20236;-35
2022/01/26 19:02:59;;;;;;;27.48;16.40;;;;;;;;;;4994285;28;20738;-33
2022/01/26 19:05:26;;;;;;;37.60;17.35;;;;;;;;;;4994836;28;20251;-35
2022/01/26 19:07:54;;;;;;;39.75;17.98;;;;;;;;;;4998343;28;20247;-33
2022/01/26 19:10:21;;;;;;;33.58;17.35;;;;;;;;;;5000513;28;20242;-34
2022/01/26 19:12:50;;;;;;;29.08;18.10;;;;;;;;;;4993691;28;20242;-32
2022/01/26 19:15:20;;;;;;;34.58;18.05;;;;;;;;;;4996486;28;20232;-33
2022/01/26 19:25:58;;;;;;;32.03;19.25;;;;;;;;;;4993846;28;20279;-31
2022/01/26 19:28:31;;;;;;;33.45;20.60;;;;;;;;;;4978987;28;20419;-36
2022/01/26 19:43:28;;;;;;;31.65;20.98;;;;;;;;;;4984738;28;20228;-46
2022/01/26 19:45:21;;;;;;;29.85;19.23;;;;;;;;;;4981984;28;20820;-39
2022/01/26 19:53:00;;;;;;;27.10;18.13;;;;;;;;;;4988766;28;20258;-42
2022/01/26 19:55:27;;;;;;;26.35;18.77;;;;;;;;;;4982987;28;20268;-42
2022/01/26 19:57:54;;;;;;;29.30;18.15;;;;;;;;;;4978515;28;20228;-41
2022/01/26 20:00:21;;;;;;;27.33;18.20;;;;;;;;;;4985410;28;20228;-40
2022/01/26 20:02:49;;;;;;;25.67;18.58;;;;;;;;;;4988131;28;20240;-42
2022/01/26 20:05:17;;;;;;;26.23;18.38;;;;;;;;;;4983752;28;20268;-41
2022/01/26 20:07:46;;;;;;;27.52;18.45;;;;;;;;;;4982510;28;20243;-40
2022/01/26 20:10:16;;;;;;;28.58;19.17;;;;;;;;;;4987056;28;21043;-45
2022/01/26 20:12:49;;;;;;;28.50;18.05;;;;;;;;;;4987984;28;20247;-46
2022/01/26 20:15:17;;;;;;;26.45;17.83;;;;;;;;;;4989838;28;20291;-47
2022/01/26 20:17:46;;;;;;;27.05;17.88;;;;;;;;;;4986607;28;20334;-45
2022/01/26 20:20:15;;;;;;;25.88;17.65;;;;;;;;;;5007780;28;20284;-46
2022/01/26 20:22:42;;;;;;;29.98;18.33;;;;;;;;;;5011958;28;20253;-41
2022/01/26 20:25:09;;;;;;;29.77;18.52;;;;;;;;;;5014432;28;20315;-46
2022/01/26 20:27:37;;;;;;;25.20;17.45;;;;;;;;;;5010383;28;20279;-45
2022/01/26 20:30:11;;;;;;;22.30;17.00;;;;;;;;;;4994330;28;20238;-46
2022/01/26 20:32:38;;;;;;;25.10;17.35;;;;;;;;;;4996238;28;20244;-47
2022/01/26 20:35:05;;;;;;;25.95;17.80;;;;;;;;;;5001372;28;20236;-41
2022/01/26 20:37:32;;;;;;;24.52;17.35;;;;;;;;;;4996130;28;20235;-46
2022/01/26 20:39:59;;;;;;;26.08;17.10;;;;;;;;;;4991447;28;20243;-45
2022/01/26 20:42:26;;;;;;;26.42;18.05;;;;;;;;;;4993717;28;21077;-45
2022/01/26 20:44:53;;;;;;;23.63;17.15;;;;;;;;;;5003995;28;20232;-43
2022/01/26 20:47:20;;;;;;;24.08;17.42;;;;;;;;;;5002311;28;20291;-48
2022/01/26 20:49:47;;;;;;;23.83;17.00;;;;;;;;;;5006232;28;20315;-40
2022/01/26 20:52:14;;;;;;;22.20;16.52;;;;;;;;;;5000885;28;20284;-45
2022/01/26 20:54:42;;;;;;;21.38;15.73;;;;;;;;;;5004945;28;20264;-45
2022/01/26 20:57:09;;;;;;;26.10;16.08;;;;;;;;;;4995472;28;20231;-42